Time;durP1;ratioP1;P1;durP2;ratioP2;P2;SDS_P1;SDS_P2;PMS_P1;PMS_P2;Temp;Humidity;BMP_temperature;BMP_pressure;BME280_temperature;BME280_humidity;BME280_pressure;Samples;Min_cycle;Max_cycle;Signal;HPM_P1;HPM_P2
2023/10/25 00:00:39;;;;;;;7.97;1.75;;;18.40;96.70;;;;;;4998535;28;20046;-78
2023/10/25 00:03:10;;;;;;;6.90;0.75;;;18.40;96.70;;;;;;5014432;28;20179;-78
2023/10/25 00:05:38;;;;;;;9.45;1.23;;;18.40;96.70;;;;;;5008074;28;20131;-78
2023/10/25 00:08:06;;;;;;;9.45;1.85;;;18.30;96.70;;;;;;5003617;28;20049;-78
2023/10/25 00:10:34;;;;;;;7.57;1.30;;;18.30;96.70;;;;;;5003771;28;20070;-80
2023/10/25 00:13:03;;;;;;;7.40;1.15;;;18.30;96.70;;;;;;5003388;28;20042;-78
2023/10/25 00:15:31;;;;;;;10.63;1.42;;;18.30;96.70;;;;;;5005963;28;20049;-78
2023/10/25 00:17:59;;;;;;;9.23;1.30;;;18.30;96.70;;;;;;5001977;28;20050;-78
2023/10/25 00:20:27;;;;;;;7.90;1.42;;;18.30;96.70;;;;;;5001468;28;20046;-78
2023/10/25 00:22:55;;;;;;;7.65;1.10;;;18.30;96.70;;;;;;5003530;28;20038;-79
2023/10/25 00:25:23;;;;;;;5.63;1.27;;;18.30;96.70;;;;;;5002930;28;20049;-78
2023/10/25 00:27:51;;;;;;;9.95;1.50;;;18.30;96.70;;;;;;5012043;28;20483;-78
2023/10/25 00:30:20;;;;;;;6.60;1.20;;;18.30;96.70;;;;;;5009355;28;20442;-78
2023/10/25 00:32:48;;;;;;;7.60;1.77;;;18.30;96.70;;;;;;5011663;28;20498;-78
2023/10/25 00:35:16;;;;;;;7.38;1.35;;;18.30;96.70;;;;;;5016838;28;20091;-78
2023/10/25 00:37:44;;;;;;;7.57;1.20;;;18.20;96.70;;;;;;5003073;28;20045;-77
2023/10/25 00:40:12;;;;;;;6.63;1.30;;;18.10;96.70;;;;;;5000526;28;20052;-78
2023/10/25 00:42:41;;;;;;;8.32;0.88;;;18.10;96.70;;;;;;5004356;28;20135;-77
2023/10/25 00:45:09;;;;;;;5.50;0.70;;;18.00;96.70;;;;;;5001563;28;20672;-78
2023/10/25 00:47:40;;;;;;;7.55;1.17;;;18.00;96.70;;;;;;5004955;28;20385;-78
2023/10/25 00:50:09;;;;;;;6.63;1.40;;;18.00;96.70;;;;;;5003017;28;20469;-79
2023/10/25 00:52:37;;;;;;;7.90;0.90;;;18.00;96.70;;;;;;5003382;28;20038;-78
2023/10/25 00:55:06;;;;;;;8.20;1.17;;;18.00;96.70;;;;;;5008124;28;20060;-78
2023/10/25 00:57:34;;;;;;;6.07;0.80;;;18.00;96.70;;;;;;5013637;28;20072;-78
2023/10/25 01:00:03;;;;;;;9.25;1.13;;;17.90;96.70;;;;;;5006660;28;20042;-80
2023/10/25 01:02:31;;;;;;;4.25;1.15;;;17.90;96.70;;;;;;4997811;28;20057;-79
2023/10/25 01:05:00;;;;;;;4.70;0.85;;;17.80;96.70;;;;;;5005646;28;20049;-79
2023/10/25 01:07:28;;;;;;;10.07;1.02;;;17.80;96.70;;;;;;5004705;28;20045;-79
2023/10/25 01:09:56;;;;;;;5.20;1.00;;;17.70;96.70;;;;;;5003259;28;20634;-78
2023/10/25 01:12:24;;;;;;;6.57;0.88;;;17.70;96.70;;;;;;5012045;28;20686;-79
2023/10/25 01:14:52;;;;;;;6.85;0.80;;;17.60;96.70;;;;;;4998541;28;20037;-78
2023/10/25 01:17:20;;;;;;;8.75;0.80;;;17.60;96.70;;;;;;5006792;28;20046;-79
2023/10/25 01:19:48;;;;;;;7.65;1.05;;;17.60;96.70;;;;;;5003906;28;20038;-78
2023/10/25 01:22:17;;;;;;;8.73;1.13;;;17.60;96.70;;;;;;5004848;28;20057;-78
2023/10/25 01:24:47;;;;;;;10.32;1.08;;;17.60;96.70;;;;;;5008068;28;20395;-80
2023/10/25 01:27:16;;;;;;;6.07;1.00;;;17.50;96.70;;;;;;5004112;28;20056;-79
2023/10/25 01:29:43;;;;;;;3.70;0.68;;;17.50;96.70;;;;;;5002920;28;20049;-78
2023/10/25 01:32:12;;;;;;;6.95;1.10;;;17.50;96.70;;;;;;4998797;28;20503;-79
2023/10/25 01:34:40;;;;;;;5.57;0.90;;;17.40;96.70;;;;;;5002665;28;20133;-79
2023/10/25 01:37:08;;;;;;;6.38;1.17;;;17.50;96.70;;;;;;5009624;28;20055;-79
2023/10/25 01:39:36;;;;;;;7.45;1.20;;;17.50;96.70;;;;;;5005846;28;20411;-80
2023/10/25 01:42:07;;;;;;;6.30;1.10;;;17.50;96.70;;;;;;5009595;28;20732;-78
2023/10/25 01:44:35;;;;;;;6.78;1.10;;;17.40;96.70;;;;;;5002578;28;20608;-79
2023/10/25 01:47:03;;;;;;;6.05;1.20;;;17.40;96.70;;;;;;5002806;28;20042;-79
2023/10/25 01:49:31;;;;;;;7.70;1.10;;;17.30;96.70;;;;;;5006912;28;20900;-79
2023/10/25 01:51:59;;;;;;;7.20;0.93;;;17.30;96.70;;;;;;5003178;28;20049;-79
2023/10/25 01:54:27;;;;;;;9.00;1.65;;;17.40;96.70;;;;;;5002259;28;20050;-80
2023/10/25 01:56:55;;;;;;;6.43;1.20;;;17.50;96.70;;;;;;5003467;28;20503;-78
2023/10/25 01:59:24;;;;;;;6.50;1.00;;;17.60;96.70;;;;;;5002626;28;20144;-80
2023/10/25 02:01:52;;;;;;;7.40;1.05;;;17.60;96.70;;;;;;5002270;28;20514;-79
2023/10/25 02:04:20;;;;;;;6.80;0.98;;;17.70;96.70;;;;;;5000790;28;20042;-79
2023/10/25 02:06:51;;;;;;;5.55;1.30;;;17.70;96.70;;;;;;5003644;28;20045;-79
2023/10/25 02:09:20;;;;;;;7.13;1.25;;;17.60;96.70;;;;;;5002474;28;20076;-79
2023/10/25 02:11:48;;;;;;;4.38;1.10;;;17.60;96.70;;;;;;5002996;28;20121;-79
2023/10/25 02:14:16;;;;;;;7.25;1.30;;;17.50;96.70;;;;;;5002198;28;20128;-80
2023/10/25 02:16:46;;;;;;;12.73;2.35;;;17.50;96.70;;;;;;5003341;28;20042;-79
2023/10/25 02:19:15;;;;;;;5.63;1.40;;;17.40;96.70;;;;;;5005973;28;20042;-79
2023/10/25 02:21:43;;;;;;;6.82;0.93;;;17.40;96.70;;;;;;5005587;28;20065;-78
2023/10/25 02:24:15;;;;;;;6.55;1.00;;;17.40;96.70;;;;;;5002712;28;20053;-79
2023/10/25 02:26:43;;;;;;;7.13;1.10;;;17.30;96.70;;;;;;4988678;28;20054;-78
2023/10/25 02:29:11;;;;;;;9.75;1.00;;;17.30;96.70;;;;;;4985100;28;20042;-78
2023/10/25 02:31:39;;;;;;;7.55;1.40;;;17.30;96.70;;;;;;5006588;28;20048;-78
2023/10/25 02:34:08;;;;;;;3.97;0.80;;;17.30;96.70;;;;;;5005871;28;20050;-78
2023/10/25 02:36:36;;;;;;;6.95;1.13;;;17.30;96.70;;;;;;5006557;28;20040;-79
2023/10/25 02:39:05;;;;;;;7.30;0.90;;;17.20;96.70;;;;;;5007521;28;20046;-80
2023/10/25 02:41:33;;;;;;;5.05;0.85;;;17.30;96.70;;;;;;5006784;28;20104;-79
2023/10/25 02:44:01;;;;;;;4.53;0.98;;;17.30;96.70;;;;;;5023067;28;20049;-79
2023/10/25 02:46:29;;;;;;;6.28;1.20;;;17.30;96.70;;;;;;5006154;28;20611;-79
2023/10/25 02:48:57;;;;;;;9.75;1.40;;;17.30;96.70;;;;;;4999354;28;20081;-78
2023/10/25 02:51:26;;;;;;;5.07;1.40;;;17.20;96.70;;;;;;5001739;28;20619;-79
2023/10/25 02:53:54;;;;;;;4.30;1.05;;;17.20;96.70;;;;;;4998764;28;20073;-79
2023/10/25 02:56:22;;;;;;;4.28;1.13;;;17.30;96.70;;;;;;5006107;28;20046;-78
2023/10/25 02:58:50;;;;;;;7.70;1.20;;;17.40;96.70;;;;;;5003288;28;20044;-78
2023/10/25 03:01:22;;;;;;;9.70;1.15;;;17.40;96.70;;;;;;5014178;28;20037;-79
2023/10/25 03:03:51;;;;;;;7.68;1.10;;;17.40;96.70;;;;;;5014309;28;20049;-78
2023/10/25 03:06:20;;;;;;;5.72;1.00;;;17.40;96.70;;;;;;5006700;28;20507;-79
2023/10/25 03:08:49;;;;;;;6.05;1.08;;;17.50;96.70;;;;;;5007607;28;20454;-77
2023/10/25 03:11:37;;;;;;;6.10;0.75;;;17.50;96.70;;;;;;4993651;28;20046;-77
2023/10/25 03:14:06;;;;;;;4.63;0.75;;;17.60;96.70;;;;;;4983559;28;20149;-78
2023/10/25 03:16:34;;;;;;;6.63;0.90;;;17.60;96.70;;;;;;4986721;28;20441;-78
2023/10/25 03:19:03;;;;;;;6.10;0.95;;;17.60;96.70;;;;;;4982978;28;20050;-79
2023/10/25 03:21:31;;;;;;;9.15;1.33;;;17.80;96.70;;;;;;4962363;28;20054;-79
2023/10/25 03:24:02;;;;;;;3.78;1.13;;;17.80;96.70;;;;;;4996383;28;20052;-78
2023/10/25 03:26:30;;;;;;;3.22;0.95;;;17.80;96.70;;;;;;4982028;28;20080;-79
2023/10/25 03:28:58;;;;;;;5.13;0.70;;;17.90;96.70;;;;;;4992863;28;20134;-79
2023/10/25 03:31:26;;;;;;;4.32;0.82;;;17.90;96.70;;;;;;4994191;28;20054;-78
2023/10/25 03:33:55;;;;;;;5.97;0.93;;;17.80;96.70;;;;;;4983608;28;20064;-79
2023/10/25 03:36:24;;;;;;;7.07;0.85;;;17.80;96.70;;;;;;4994591;28;20102;-79
2023/10/25 03:38:52;;;;;;;6.65;1.33;;;17.90;96.70;;;;;;4993596;28;20809;-78
2023/10/25 03:41:22;;;;;;;6.55;1.08;;;17.90;96.70;;;;;;4983955;28;20779;-78
2023/10/25 03:43:50;;;;;;;3.80;0.80;;;17.90;96.70;;;;;;5004431;28;20058;-78
2023/10/25 03:46:18;;;;;;;2.65;0.60;;;17.90;96.70;;;;;;5011413;28;20069;-78
2023/10/25 03:48:48;;;;;;;5.28;0.80;;;17.90;96.70;;;;;;5003511;28;20037;-79
2023/10/25 03:51:16;;;;;;;13.68;2.13;;;17.80;96.70;;;;;;5003359;28;20038;-78
2023/10/25 03:53:45;;;;;;;7.93;1.05;;;17.80;96.70;;;;;;5004979;28;20038;-79
2023/10/25 03:56:13;;;;;;;6.75;0.80;;;17.80;96.70;;;;;;5002370;28;20053;-79
2023/10/25 03:58:43;;;;;;;2.90;0.63;;;17.80;96.70;;;;;;5003853;28;20096;-78
2023/10/25 04:01:11;;;;;;;3.83;0.73;;;17.80;96.70;;;;;;5003802;28;20495;-78
2023/10/25 04:03:39;;;;;;;4.25;0.75;;;17.80;96.70;;;;;;5008033;28;20038;-78
2023/10/25 04:06:08;;;;;;;5.40;1.20;;;17.80;96.70;;;;;;5004036;28;20483;-78
2023/10/25 04:08:36;;;;;;;6.47;0.80;;;17.90;96.70;;;;;;5008840;28;21215;-78
2023/10/25 04:11:05;;;;;;;5.32;0.75;;;17.80;96.70;;;;;;5009728;28;20045;-78
2023/10/25 04:13:33;;;;;;;6.53;0.77;;;17.80;96.70;;;;;;5009673;28;20042;-78
2023/10/25 04:16:04;;;;;;;7.20;0.95;;;17.80;96.70;;;;;;5008048;28;20609;-79
2023/10/25 04:18:33;;;;;;;5.88;0.70;;;17.80;96.70;;;;;;5003128;28;20041;-78
2023/10/25 04:21:01;;;;;;;4.78;0.60;;;17.80;96.70;;;;;;4996918;28;20133;-78
2023/10/25 04:23:31;;;;;;;4.88;0.75;;;17.70;96.70;;;;;;5000426;28;20049;-79
2023/10/25 04:26:06;;;;;;;5.72;0.90;;;17.70;96.70;;;;;;5002704;28;20050;-79
2023/10/25 04:28:35;;;;;;;5.50;0.75;;;17.70;96.70;;;;;;5003470;28;20048;-80
2023/10/25 04:31:06;;;;;;;3.58;0.50;;;17.60;96.70;;;;;;5006378;28;20415;-79
2023/10/25 04:33:34;;;;;;;4.18;0.60;;;17.60;96.70;;;;;;5004061;28;20054;-78
2023/10/25 04:36:03;;;;;;;6.85;0.93;;;17.50;96.70;;;;;;5004596;28;20116;-78
2023/10/25 04:38:31;;;;;;;2.78;0.65;;;17.50;96.70;;;;;;5006968;28;20056;-78
2023/10/25 04:41:00;;;;;;;4.57;0.52;;;17.40;96.70;;;;;;5003757;28;20038;-79
2023/10/25 04:43:28;;;;;;;10.50;1.02;;;17.40;96.70;;;;;;5002644;28;20048;-78
2023/10/25 04:45:58;;;;;;;4.43;0.75;;;17.30;96.70;;;;;;4987379;28;20526;-78
2023/10/25 04:48:28;;;;;;;7.90;1.08;;;17.30;96.70;;;;;;5003332;28;20506;-78
2023/10/25 04:50:56;;;;;;;8.30;1.10;;;17.20;96.70;;;;;;5005107;28;20046;-78
2023/10/25 04:53:24;;;;;;;6.10;1.15;;;17.20;96.70;;;;;;5007296;28;20495;-79
2023/10/25 04:55:53;;;;;;;8.65;1.00;;;17.20;96.70;;;;;;5006136;28;20030;-78
2023/10/25 04:58:21;;;;;;;4.97;0.80;;;17.20;96.70;;;;;;4985428;28;20041;-78
2023/10/25 05:00:49;;;;;;;5.18;0.90;;;17.10;96.70;;;;;;5003185;28;20042;-78
2023/10/25 05:03:18;;;;;;;4.57;0.90;;;17.10;96.70;;;;;;4999938;28;20038;-78
2023/10/25 05:05:49;;;;;;;5.95;1.35;;;17.10;96.70;;;;;;5003204;28;20359;-78
2023/10/25 05:08:17;;;;;;;4.55;1.15;;;17.20;96.70;;;;;;5005355;28;20519;-78
2023/10/25 05:10:51;;;;;;;7.30;1.02;;;17.30;96.70;;;;;;5004397;28;20073;-78
2023/10/25 05:13:20;;;;;;;4.82;0.88;;;17.30;96.70;;;;;;5003275;28;20129;-79
2023/10/25 05:15:48;;;;;;;7.85;1.08;;;17.30;96.70;;;;;;5011792;28;20456;-79
2023/10/25 05:18:17;;;;;;;11.27;2.33;;;17.30;96.70;;;;;;5008862;28;20565;-78
2023/10/25 05:20:48;;;;;;;8.40;2.15;;;17.30;96.70;;;;;;5004842;28;20062;-78
2023/10/25 05:23:16;;;;;;;9.05;1.88;;;17.30;96.70;;;;;;5003007;28;20116;-78
2023/10/25 05:25:45;;;;;;;7.45;1.58;;;17.30;96.70;;;;;;5002632;28;20061;-77
2023/10/25 05:28:14;;;;;;;13.45;2.53;;;17.30;96.70;;;;;;5002653;28;20194;-79
2023/10/25 05:30:43;;;;;;;9.85;1.63;;;17.20;96.70;;;;;;5003294;28;20045;-79
2023/10/25 05:33:12;;;;;;;9.75;1.30;;;17.20;96.70;;;;;;5006298;28;20084;-79
2023/10/25 05:35:41;;;;;;;7.70;2.05;;;17.20;96.70;;;;;;5004415;28;20065;-88
2023/10/25 05:38:11;;;;;;;4.88;1.38;;;17.20;96.70;;;;;;5007476;28;20052;-84
2023/10/25 05:40:40;;;;;;;7.65;1.58;;;17.20;96.70;;;;;;5007445;28;20531;-85
2023/10/25 05:43:14;;;;;;;8.00;1.30;;;17.20;96.70;;;;;;5012379;28;20124;-84
2023/10/25 05:45:42;;;;;;;6.45;1.25;;;17.20;96.70;;;;;;5006310;28;20786;-84
2023/10/25 05:48:15;;;;;;;6.38;1.00;;;17.20;96.70;;;;;;5007431;28;20098;-83
2023/10/25 05:50:45;;;;;;;6.88;1.30;;;17.20;96.70;;;;;;5006186;28;20364;-84
2023/10/25 05:53:15;;;;;;;8.40;1.40;;;17.20;96.70;;;;;;4999506;28;20045;-83
2023/10/25 05:55:44;;;;;;;7.40;1.10;;;17.20;96.70;;;;;;5009998;28;20053;-83
2023/10/25 05:58:12;;;;;;;5.18;1.02;;;17.20;96.70;;;;;;5011728;28;20042;-81
2023/10/25 06:00:48;;;;;;;8.93;1.30;;;17.20;96.70;;;;;;5011569;28;20125;-82
2023/10/25 06:03:20;;;;;;;8.48;1.23;;;17.20;96.70;;;;;;5010144;28;20046;-83
2023/10/25 06:06:00;;;;;;;5.15;0.98;;;17.20;96.70;;;;;;5010977;28;20049;-84
2023/10/25 06:08:31;;;;;;;3.95;0.95;;;17.20;96.70;;;;;;5010122;28;20463;-82
2023/10/25 06:11:00;;;;;;;7.15;1.23;;;17.20;96.70;;;;;;5010433;28;20050;-86
2023/10/25 06:13:28;;;;;;;9.55;1.50;;;17.20;96.70;;;;;;5010050;28;20041;-88
2023/10/25 06:15:56;;;;;;;7.40;1.30;;;17.30;96.70;;;;;;5010275;28;20770;-83
2023/10/25 06:18:24;;;;;;;7.28;1.42;;;17.20;96.70;;;;;;5004802;28;20073;-83
2023/10/25 06:20:53;;;;;;;4.93;1.38;;;17.20;96.70;;;;;;4993150;28;20117;-83
2023/10/25 06:23:20;;;;;;;7.85;1.95;;;17.20;96.70;;;;;;5010081;28;20053;-83
2023/10/25 06:25:50;;;;;;;7.97;1.90;;;17.20;96.70;;;;;;5009291;28;20045;-82
2023/10/25 06:28:18;;;;;;;9.02;2.50;;;17.20;96.70;;;;;;4999509;28;20555;-79
2023/10/25 06:30:46;;;;;;;6.50;2.10;;;17.20;96.70;;;;;;5005972;28;20072;-81
2023/10/25 06:33:14;;;;;;;6.90;2.88;;;17.30;96.70;;;;;;5007308;28;20054;-79
2023/10/25 06:35:43;;;;;;;10.43;2.53;;;17.30;96.70;;;;;;5006291;28;20058;-79
2023/10/25 06:38:13;;;;;;;6.45;1.90;;;17.30;96.70;;;;;;5016581;28;20495;-80
2023/10/25 06:40:44;;;;;;;6.80;1.52;;;17.30;96.70;;;;;;5009180;28;20484;-79
2023/10/25 06:43:14;;;;;;;7.68;2.35;;;17.30;96.70;;;;;;5010225;28;20049;-79
2023/10/25 06:45:45;;;;;;;8.63;2.28;;;17.40;96.70;;;;;;5016560;28;20046;-79
2023/10/25 06:48:14;;;;;;;6.30;1.95;;;17.40;96.70;;;;;;5008554;28;20582;-79
2023/10/25 06:50:45;;;;;;;7.95;1.98;;;17.50;96.70;;;;;;5008075;28;20046;-79
2023/10/25 06:53:14;;;;;;;7.85;2.58;;;17.50;96.70;;;;;;5008132;28;20046;-79
2023/10/25 06:55:44;;;;;;;18.88;5.97;;;17.60;96.70;;;;;;5006487;28;20446;-80
2023/10/25 06:58:14;;;;;;;9.82;2.72;;;17.60;96.70;;;;;;5007832;28;20073;-80
2023/10/25 07:00:43;;;;;;;19.88;5.55;;;17.60;96.70;;;;;;5003356;28;20948;-80
2023/10/25 07:03:13;;;;;;;13.85;4.22;;;17.70;96.70;;;;;;5006176;28;20038;-80
2023/10/25 07:05:43;;;;;;;31.25;8.85;;;17.80;96.70;;;;;;5023995;28;20466;-80
2023/10/25 07:08:12;;;;;;;22.75;7.13;;;17.80;96.70;;;;;;5008838;28;20065;-80
2023/10/25 07:10:41;;;;;;;17.30;5.88;;;17.80;96.70;;;;;;5006805;28;20052;-80
2023/10/25 07:13:09;;;;;;;15.32;5.13;;;17.80;96.70;;;;;;5007004;28;20554;-80
2023/10/25 07:15:39;;;;;;;15.85;6.20;;;17.80;96.70;;;;;;5007263;28;20388;-80
2023/10/25 07:18:07;;;;;;;12.85;4.25;;;17.90;96.70;;;;;;5016757;28;20038;-80
2023/10/25 07:20:36;;;;;;;16.73;4.40;;;17.90;96.70;;;;;;5013734;28;20123;-80
2023/10/25 07:23:04;;;;;;;11.57;4.18;;;17.90;96.70;;;;;;5006375;28;20454;-80
2023/10/25 07:25:33;;;;;;;12.68;3.85;;;17.90;96.70;;;;;;5007748;28;20068;-81
2023/10/25 07:28:01;;;;;;;13.60;3.28;;;18.00;96.70;;;;;;5013880;28;20060;-79
2023/10/25 07:30:29;;;;;;;8.80;2.08;;;18.00;96.70;;;;;;5017415;28;20057;-80
2023/10/25 07:32:59;;;;;;;15.60;3.00;;;18.00;96.70;;;;;;5015192;28;20057;-79
2023/10/25 07:35:27;;;;;;;10.00;2.55;;;18.10;96.70;;;;;;5009388;28;20053;-79
2023/10/25 07:37:55;;;;;;;11.68;2.22;;;18.10;96.70;;;;;;5011673;28;20069;-80
2023/10/25 07:40:23;;;;;;;9.20;2.65;;;18.10;96.70;;;;;;4997337;28;20149;-79
2023/10/25 07:42:52;;;;;;;9.80;2.85;;;18.10;96.70;;;;;;5014890;28;20112;-80
2023/10/25 07:45:20;;;;;;;10.32;2.60;;;18.10;96.70;;;;;;5006214;28;20061;-79
2023/10/25 07:47:49;;;;;;;10.65;2.38;;;18.10;96.70;;;;;;5007563;28;20442;-80
2023/10/25 07:50:20;;;;;;;11.60;2.78;;;18.20;96.70;;;;;;5006382;28;20054;-80
2023/10/25 07:52:49;;;;;;;12.13;2.72;;;18.20;96.70;;;;;;5007637;28;20037;-80
2023/10/25 07:55:18;;;;;;;7.65;1.92;;;18.20;96.70;;;;;;4989563;28;20317;-80
2023/10/25 07:58:07;;;;;;;7.82;1.20;;;18.30;96.70;;;;;;5006378;28;20504;-80
2023/10/25 08:00:38;;;;;;;13.38;2.88;;;18.30;96.70;;;;;;5007518;28;20038;-79
2023/10/25 08:03:08;;;;;;;8.15;2.45;;;18.30;96.70;;;;;;5008564;28;20522;-80
2023/10/25 08:05:38;;;;;;;10.30;2.72;;;18.40;96.70;;;;;;5005378;28;20046;-80
2023/10/25 08:08:10;;;;;;;11.90;2.72;;;18.40;96.70;;;;;;5006412;28;20049;-79
2023/10/25 08:10:40;;;;;;;13.75;2.45;;;18.40;96.70;;;;;;5005520;28;20054;-80
2023/10/25 08:13:08;;;;;;;12.23;2.03;;;18.40;96.70;;;;;;4995001;28;20464;-79
2023/10/25 08:15:36;;;;;;;9.88;1.90;;;18.40;96.70;;;;;;5008819;28;20058;-79
2023/10/25 08:18:05;;;;;;;7.50;1.40;;;18.40;96.70;;;;;;5003424;28;20566;-79
2023/10/25 08:20:37;;;;;;;10.32;2.13;;;18.40;96.70;;;;;;5013884;28;20045;-79
2023/10/25 08:23:05;;;;;;;11.68;1.95;;;18.40;96.70;;;;;;5005881;28;20042;-77
2023/10/25 08:25:35;;;;;;;7.97;2.13;;;18.40;96.70;;;;;;5005472;28;20503;-78
2023/10/25 08:28:03;;;;;;;8.25;1.92;;;18.40;96.70;;;;;;5020471;28;20054;-79
2023/10/25 08:30:31;;;;;;;5.43;1.60;;;18.30;96.70;;;;;;5014762;28;20050;-78
2023/10/25 08:33:00;;;;;;;6.28;1.55;;;18.30;96.70;;;;;;5013088;28;20065;-78
2023/10/25 08:35:28;;;;;;;8.35;1.85;;;18.30;96.70;;;;;;5006706;28;20042;-78
2023/10/25 08:37:58;;;;;;;5.90;1.50;;;18.30;96.70;;;;;;5020225;28;20099;-77
2023/10/25 08:40:26;;;;;;;8.57;1.80;;;18.30;96.70;;;;;;5014041;28;20057;-79
2023/10/25 08:42:58;;;;;;;10.95;2.05;;;18.30;96.70;;;;;;5000391;28;20071;-78
2023/10/25 08:45:28;;;;;;;9.45;2.00;;;18.20;96.70;;;;;;5024274;28;20045;-77
2023/10/25 08:47:57;;;;;;;11.00;2.20;;;18.30;96.70;;;;;;5014827;28;20045;-78
2023/10/25 08:50:26;;;;;;;9.50;1.52;;;18.30;96.70;;;;;;4999741;28;20531;-78
2023/10/25 08:52:55;;;;;;;4.82;1.50;;;18.30;96.70;;;;;;5007596;28;20046;-77
2023/10/25 08:55:26;;;;;;;9.23;2.10;;;18.40;96.70;;;;;;5016743;28;20053;-77
2023/10/25 08:57:55;;;;;;;16.98;2.33;;;18.50;96.70;;;;;;5006283;28;20570;-77
2023/10/25 09:00:28;;;;;;;13.93;1.88;;;18.50;96.70;;;;;;5003860;28;20050;-78
2023/10/25 09:03:39;;;;;;;8.20;1.92;;;18.60;96.70;;;;;;5020856;28;20124;-78
2023/10/25 09:06:09;;;;;;;8.48;1.98;;;18.60;96.70;;;;;;5008076;28;20049;-77
2023/10/25 09:08:38;;;;;;;7.53;1.10;;;18.60;96.70;;;;;;5024628;28;20073;-78
2023/10/25 09:11:11;;;;;;;5.72;1.38;;;18.70;96.70;;;;;;5008396;28;20050;-78
2023/10/25 09:13:44;;;;;;;4.50;1.30;;;18.70;96.70;;;;;;5003588;28;20054;-77
2023/10/25 09:16:13;;;;;;;6.15;1.10;;;18.80;96.70;;;;;;5014870;28;20046;-77
2023/10/25 09:18:41;;;;;;;6.93;1.83;;;18.90;96.70;;;;;;5019820;28;20164;-77
2023/10/25 09:21:11;;;;;;;9.32;1.60;;;18.90;96.70;;;;;;5018088;28;20391;-78
2023/10/25 09:23:41;;;;;;;6.55;1.67;;;18.80;96.70;;;;;;5022651;28;20065;-77
2023/10/25 09:26:15;;;;;;;9.02;1.67;;;18.80;96.70;;;;;;5006091;28;20041;-77
2023/10/25 09:28:51;;;;;;;8.98;1.50;;;18.70;96.70;;;;;;5002355;28;20053;-77
2023/10/25 09:31:22;;;;;;;8.02;2.15;;;18.80;96.70;;;;;;5003819;28;20101;-77
2023/10/25 09:33:51;;;;;;;8.30;2.28;;;18.80;96.70;;;;;;5003240;28;20069;-79
2023/10/25 09:36:19;;;;;;;9.23;2.60;;;18.90;96.70;;;;;;5003284;28;20046;-77
2023/10/25 09:38:48;;;;;;;10.45;2.45;;;18.90;96.70;;;;;;5002831;28;20403;-77
2023/10/25 09:41:19;;;;;;;8.90;2.70;;;18.90;96.70;;;;;;4996478;28;20044;-77
2023/10/25 09:43:49;;;;;;;8.00;2.15;;;18.90;96.70;;;;;;5013493;28;20059;-78
2023/10/25 09:46:18;;;;;;;11.35;2.03;;;18.90;96.70;;;;;;5019974;28;20600;-78
2023/10/25 09:48:55;;;;;;;6.45;1.85;;;18.80;96.70;;;;;;5014037;28;20050;-77
2023/10/25 09:51:38;;;;;;;5.40;1.20;;;18.80;96.70;;;;;;5019650;28;20387;-78
2023/10/25 09:54:10;;;;;;;3.40;1.02;;;18.80;96.70;;;;;;5014408;28;20057;-79
2023/10/25 09:56:42;;;;;;;5.95;1.30;;;18.90;96.70;;;;;;5022639;28;20162;-79
2023/10/25 09:59:12;;;;;;;6.53;1.63;;;18.90;96.70;;;;;;5017677;28;20046;-79
2023/10/25 10:01:41;;;;;;;5.75;1.15;;;19.00;96.70;;;;;;5003122;28;20080;-78
2023/10/25 10:04:14;;;;;;;7.72;1.50;;;19.00;96.70;;;;;;5004903;28;20128;-78
2023/10/25 10:07:04;;;;;;;5.40;1.58;;;19.00;96.70;;;;;;5005860;28;20141;-78
2023/10/25 10:09:40;;;;;;;5.80;1.65;;;19.00;96.70;;;;;;5005644;28;20049;-77
2023/10/25 10:12:11;;;;;;;5.20;1.63;;;19.10;96.70;;;;;;5019775;28;20545;-77
2023/10/25 10:14:42;;;;;;;3.08;1.10;;;19.10;96.70;;;;;;5015424;28;20072;-78
2023/10/25 10:17:14;;;;;;;4.78;1.42;;;19.10;96.70;;;;;;5005230;28;20496;-79
2023/10/25 10:19:43;;;;;;;7.05;1.30;;;19.10;96.70;;;;;;5002550;28;20049;-77
2023/10/25 10:22:13;;;;;;;3.05;1.10;;;19.20;96.70;;;;;;5002789;28;20052;-79
2023/10/25 10:24:44;;;;;;;3.75;0.95;;;19.30;96.70;;;;;;5003806;28;20062;-77
2023/10/25 10:27:16;;;;;;;6.78;0.93;;;19.50;96.70;;;;;;5004019;28;20064;-78
2023/10/25 10:29:45;;;;;;;5.88;1.33;;;19.60;96.70;;;;;;5004071;28;20050;-77
2023/10/25 10:32:14;;;;;;;6.85;1.67;;;19.70;96.70;;;;;;5003665;28;20049;-77
2023/10/25 10:34:45;;;;;;;5.72;1.60;;;19.70;96.70;;;;;;5003608;28;20052;-77
2023/10/25 10:37:14;;;;;;;8.50;1.45;;;19.70;96.70;;;;;;5005627;28;20100;-77
2023/10/25 10:40:10;;;;;;;7.13;1.58;;;19.70;96.70;;;;;;5010603;28;20097;-77
2023/10/25 10:42:40;;;;;;;6.80;1.83;;;19.80;96.70;;;;;;5006412;28;20042;-76
2023/10/25 10:45:13;;;;;;;6.13;1.00;;;19.90;96.70;;;;;;5006630;28;20511;-78
2023/10/25 10:47:43;;;;;;;6.15;1.38;;;19.90;96.70;;;;;;5019870;28;20111;-77
2023/10/25 10:50:13;;;;;;;4.57;1.00;;;19.70;96.70;;;;;;5011703;28;20042;-77
2023/10/25 10:52:42;;;;;;;4.20;1.20;;;19.60;96.70;;;;;;5006997;28;20037;-77
2023/10/25 10:55:14;;;;;;;8.55;1.45;;;19.40;96.70;;;;;;5004040;28;20061;-78
2023/10/25 10:57:44;;;;;;;6.80;1.38;;;19.40;96.70;;;;;;5005351;28;20034;-79
2023/10/25 11:00:33;;;;;;;2.97;1.35;;;19.40;96.70;;;;;;5005734;28;20050;-77
2023/10/25 11:03:02;;;;;;;5.15;2.08;;;19.30;96.70;;;;;;5012182;28;20111;-77
2023/10/25 11:05:36;;;;;;;7.68;1.85;;;19.20;96.70;;;;;;5005303;28;20054;-77
2023/10/25 11:08:10;;;;;;;6.85;1.80;;;19.20;96.70;;;;;;5002545;28;20785;-77
2023/10/25 11:10:39;;;;;;;8.90;2.10;;;19.20;96.70;;;;;;5021614;28;20071;-78
2023/10/25 11:13:10;;;;;;;6.22;1.67;;;19.20;96.70;;;;;;5005074;28;20514;-77
2023/10/25 11:15:39;;;;;;;7.05;2.20;;;19.10;96.70;;;;;;5005067;28;20062;-77
2023/10/25 11:18:08;;;;;;;7.78;1.92;;;19.10;96.70;;;;;;5006966;28;20053;-77
2023/10/25 11:20:39;;;;;;;9.10;1.92;;;19.10;96.70;;;;;;5022748;28;20049;-78
2023/10/25 11:23:09;;;;;;;6.55;1.85;;;19.10;96.70;;;;;;5006322;28;20384;-78
2023/10/25 11:25:38;;;;;;;6.72;1.95;;;19.10;96.70;;;;;;5005344;28;20112;-79
2023/10/25 11:28:07;;;;;;;3.97;1.45;;;19.20;96.70;;;;;;5004326;28;20054;-77
2023/10/25 11:30:38;;;;;;;4.63;1.70;;;19.20;96.70;;;;;;5004359;28;20053;-77
2023/10/25 11:33:09;;;;;;;5.82;1.50;;;19.10;96.70;;;;;;5002756;28;20089;-77
2023/10/25 11:35:41;;;;;;;8.40;1.40;;;19.00;96.70;;;;;;5005550;28;20050;-77
2023/10/25 11:38:10;;;;;;;4.47;1.10;;;18.90;96.70;;;;;;5010968;28;20056;-80
2023/10/25 11:40:47;;;;;;;5.28;1.48;;;18.90;96.70;;;;;;5004773;28;20044;-79
2023/10/25 11:43:15;;;;;;;2.83;0.95;;;18.90;96.70;;;;;;5008498;28;20069;-80
2023/10/25 11:45:46;;;;;;;1.83;0.63;;;19.10;96.70;;;;;;5005010;28;20038;-78
2023/10/25 11:48:15;;;;;;;3.03;0.80;;;19.10;96.70;;;;;;5006371;28;20112;-78
2023/10/25 11:50:46;;;;;;;2.58;0.65;;;19.20;96.70;;;;;;4994715;28;20085;-79
2023/10/25 11:53:15;;;;;;;3.55;0.98;;;19.30;96.70;;;;;;5009364;28;20045;-86
2023/10/25 11:55:44;;;;;;;2.72;1.00;;;19.60;96.70;;;;;;5002374;28;20233;-85
2023/10/25 11:58:15;;;;;;;5.32;2.25;;;20.00;96.70;;;;;;5008813;28;20061;-86
2023/10/25 12:00:45;;;;;;;5.75;2.13;;;20.20;96.70;;;;;;5008435;28;20073;-86
2023/10/25 12:03:14;;;;;;;8.45;3.55;;;20.30;96.70;;;;;;5008479;28;20045;-84
2023/10/25 12:05:43;;;;;;;13.10;4.47;;;20.40;96.70;;;;;;5009540;28;20053;-86
2023/10/25 12:08:12;;;;;;;7.03;2.80;;;20.50;96.70;;;;;;5005147;28;20074;-84
2023/10/25 12:10:40;;;;;;;4.75;1.60;;;20.70;96.70;;;;;;5009954;28;20076;-84
2023/10/25 12:13:09;;;;;;;5.15;1.83;;;20.80;96.70;;;;;;4992442;28;20845;-85
2023/10/25 12:15:39;;;;;;;4.95;1.77;;;21.00;96.70;;;;;;5005288;28;20041;-88
2023/10/25 12:18:09;;;;;;;2.92;1.13;;;21.10;96.70;;;;;;5009506;28;20104;-85
2023/10/25 12:20:37;;;;;;;5.85;2.28;;;21.30;96.70;;;;;;5007222;28;20184;-85
2023/10/25 12:23:06;;;;;;;4.40;1.92;;;21.60;96.70;;;;;;5007901;28;20187;-86
2023/10/25 12:25:40;;;;;;;1.23;0.43;;;21.90;96.70;;;;;;4988254;28;20034;-85
2023/10/25 12:28:08;;;;;;;2.67;1.02;;;21.80;96.70;;;;;;5005156;28;20056;-86
2023/10/25 12:30:37;;;;;;;2.20;0.65;;;21.80;96.70;;;;;;5003841;28;20042;-85
2023/10/25 12:33:05;;;;;;;7.22;4.13;;;21.70;96.70;;;;;;5014798;28;20427;-86
2023/10/25 12:35:35;;;;;;;5.00;3.03;;;21.70;96.70;;;;;;5007332;28;20747;-85
2023/10/25 12:38:04;;;;;;;7.50;4.88;;;21.70;96.70;;;;;;5009228;28;20052;-85
2023/10/25 12:40:32;;;;;;;4.03;1.77;;;21.60;96.70;;;;;;5005475;28;20052;-85
2023/10/25 12:43:00;;;;;;;4.82;1.70;;;21.50;96.70;;;;;;5008831;28;20110;-85
2023/10/25 12:45:29;;;;;;;5.72;1.83;;;21.40;96.70;;;;;;5007965;28;20042;-84
2023/10/25 12:47:58;;;;;;;7.88;4.90;;;21.30;96.70;;;;;;5000209;28;20046;-86
2023/10/25 12:50:26;;;;;;;10.32;3.78;;;21.30;96.70;;;;;;5006675;28;20046;-84
2023/10/25 12:52:56;;;;;;;12.13;6.15;;;21.30;96.70;;;;;;5008017;28;20041;-87
2023/10/25 12:55:25;;;;;;;12.32;5.90;;;21.30;96.70;;;;;;5008610;28;20491;-85
2023/10/25 12:57:53;;;;;;;5.90;1.75;;;21.20;96.70;;;;;;5007056;28;20042;-84